createdAt,value
2019-03-09T00:02:02.850Z,3.00
2019-03-09T00:04:37.117Z,3.00
2019-03-09T00:07:14.253Z,3.00
2019-03-09T00:09:43.054Z,3.00
2019-03-09T00:12:14.189Z,3.00
2019-03-09T00:14:48.490Z,2.90
2019-03-09T00:17:21.500Z,2.90
2019-03-09T00:19:58.849Z,2.90
2019-03-09T00:22:27.258Z,2.90
2019-03-09T00:25:25.479Z,2.80
2019-03-09T00:28:04.550Z,2.80
2019-03-09T00:30:34.607Z,2.70
2019-03-09T00:33:03.029Z,2.70
2019-03-09T00:35:31.794Z,2.70
2019-03-09T00:38:00.214Z,2.70
2019-03-09T00:40:28.635Z,2.60
2019-03-09T00:43:02.605Z,2.70
2019-03-09T00:45:31.060Z,2.60
2019-03-09T00:48:07.084Z,2.50
2019-03-09T00:50:41.440Z,2.50
2019-03-09T00:53:15.210Z,2.50
2019-03-09T00:55:43.631Z,2.50
2019-03-09T00:58:14.726Z,2.50
2019-03-09T01:00:47.497Z,2.50
2019-03-09T01:03:24.681Z,2.40
2019-03-09T01:05:54.745Z,2.50
2019-03-09T01:08:27.601Z,2.50
2019-03-09T01:10:59.141Z,2.40
2019-03-09T01:13:30.357Z,2.40
2019-03-09T01:15:59.109Z,2.40
2019-03-09T01:18:32.989Z,2.40
2019-03-09T01:21:03.049Z,2.30
2019-03-09T01:23:31.474Z,2.30
2019-03-09T01:26:05.495Z,2.30
2019-03-09T01:28:35.544Z,2.20
2019-03-09T01:31:06.516Z,2.20
2019-03-09T01:33:37.712Z,2.10
2019-03-09T01:36:14.346Z,2.10
2019-03-09T01:38:45.674Z,2.10
2019-03-09T01:41:18.745Z,2.10
2019-03-09T01:43:50.113Z,2.10
2019-03-09T01:46:21.485Z,2.10
2019-03-09T01:48:51.534Z,2.00
2019-03-09T01:51:23.237Z,2.00
2019-03-09T01:53:53.286Z,2.00
2019-03-09T01:56:22.601Z,1.90
2019-03-09T01:58:51.013Z,1.90
2019-03-09T02:01:19.439Z,1.90
2019-03-09T02:03:56.416Z,1.90
2019-03-09T02:06:27.497Z,1.90
2019-03-09T02:08:58.877Z,1.90
2019-03-09T02:11:31.683Z,2.00
2019-03-09T02:14:03.329Z,2.00
2019-03-09T02:16:31.767Z,2.10
2019-03-09T02:19:01.809Z,2.10
2019-03-09T02:21:32.905Z,2.10
2019-03-09T02:24:05.382Z,2.10
2019-03-09T02:26:33.789Z,2.20
2019-03-09T02:29:02.210Z,2.30
2019-03-09T02:31:36.734Z,2.30
2019-03-09T02:34:09.032Z,2.40
2019-03-09T02:36:47.657Z,2.40
2019-03-09T02:39:23.678Z,2.40
2019-03-09T02:41:56.912Z,2.30
2019-03-09T02:44:26.969Z,2.40
2019-03-09T02:46:58.692Z,2.30
2019-03-09T02:49:30.491Z,2.30
2019-03-09T02:52:04.685Z,2.40
2019-03-09T02:54:43.474Z,2.40
2019-03-09T02:57:09.510Z,2.40
2019-03-09T02:59:37.926Z,2.40
2019-03-09T03:02:26.090Z,2.40
2019-03-09T03:04:59.069Z,2.30
2019-03-09T03:07:27.786Z,2.30
2019-03-09T03:09:59.693Z,2.30
2019-03-09T03:12:32.485Z,2.20
2019-03-09T03:15:01.342Z,2.20
2019-03-09T03:17:35.861Z,2.20
2019-03-09T03:20:11.898Z,2.20
2019-03-09T03:22:43.009Z,2.30
2019-03-09T03:25:13.306Z,2.30
2019-03-09T03:27:44.975Z,2.40
2019-03-09T03:30:16.280Z,2.40
2019-03-09T03:32:46.405Z,2.40
2019-03-09T03:35:14.840Z,2.40
2019-03-09T03:37:55.314Z,2.40
2019-03-09T03:40:27.477Z,2.40
2019-03-09T03:42:58.814Z,2.40
2019-03-09T03:45:29.302Z,2.50
2019-03-09T03:48:06.222Z,2.50
2019-03-09T03:50:43.543Z,2.50
2019-03-09T03:53:36.873Z,2.50
2019-03-09T03:55:53.091Z,2.50
2019-03-09T03:58:27.547Z,2.60
2019-03-09T04:00:56.932Z,2.60
2019-03-09T04:03:28.183Z,2.70
2019-03-09T04:05:56.599Z,2.70
2019-03-09T04:08:25.074Z,2.80
2019-03-09T04:10:54.379Z,2.90
2019-03-09T04:13:34.933Z,3.00
2019-03-09T04:16:13.708Z,3.00
2019-03-09T04:18:42.134Z,3.10
2019-03-09T04:21:15.980Z,3.10
2019-03-09T04:23:47.051Z,3.20
2019-03-09T04:26:21.601Z,3.20
2019-03-09T04:28:51.656Z,3.20
2019-03-09T04:31:22.798Z,3.20
2019-03-09T04:33:51.200Z,3.30
2019-03-09T04:36:25.584Z,3.30
2019-03-09T04:38:56.657Z,3.30
2019-03-09T04:41:28.004Z,3.30
2019-03-09T04:43:56.423Z,3.30
2019-03-09T04:46:27.300Z,3.30
2019-03-09T04:48:55.710Z,3.30
2019-03-09T04:51:24.130Z,3.30
2019-03-09T04:53:52.549Z,3.30
2019-03-09T04:56:24.043Z,3.30
2019-03-09T04:59:01.307Z,3.30
2019-03-09T05:01:32.589Z,3.30
2019-03-09T05:04:22.137Z,3.30
2019-03-09T05:06:50.561Z,3.30
2019-03-09T05:09:32.601Z,3.30
2019-03-09T05:12:06.732Z,3.30
2019-03-09T05:14:40.473Z,3.30
2019-03-09T05:17:08.884Z,3.40
2019-03-09T05:19:38.941Z,3.40
2019-03-09T05:22:11.737Z,3.40
2019-03-09T05:24:51.453Z,3.40
2019-03-09T05:27:19.868Z,3.40
2019-03-09T05:29:49.921Z,3.40
2019-03-09T05:32:21.029Z,3.40
2019-03-09T05:34:49.576Z,3.40
2019-03-09T05:37:23.885Z,3.50
2019-03-09T05:39:52.293Z,3.50
2019-03-09T05:42:23.857Z,3.50
2019-03-09T05:44:54.825Z,3.50
2019-03-09T05:47:35.487Z,3.60
2019-03-09T05:50:10.621Z,3.60
2019-03-09T05:52:39.094Z,3.60
2019-03-09T05:55:10.534Z,3.60
2019-03-09T05:57:38.970Z,3.60
2019-03-09T06:00:16.973Z,3.60
2019-03-09T06:02:55.860Z,3.60
2019-03-09T06:05:33.941Z,3.60
2019-03-09T06:08:08.713Z,3.60
2019-03-09T06:10:43.200Z,3.60
2019-03-09T06:13:14.537Z,3.60
2019-03-09T06:15:44.621Z,3.60
2019-03-09T06:18:13.372Z,3.60
2019-03-09T06:20:41.789Z,3.60
2019-03-09T06:23:15.966Z,3.60
2019-03-09T06:25:47.178Z,3.50
2019-03-09T06:28:15.593Z,3.50
2019-03-09T06:30:44.010Z,3.50
2019-03-09T06:33:26.813Z,3.50
2019-03-09T06:36:03.585Z,3.50
2019-03-09T06:39:02.416Z,3.50
2019-03-09T06:41:33.705Z,3.50
2019-03-09T06:44:05.563Z,3.50
2019-03-09T06:46:44.409Z,3.40
2019-03-09T06:49:12.817Z,3.40
2019-03-09T06:51:41.228Z,3.40
2019-03-09T06:54:12.353Z,3.30
2019-03-09T06:56:41.801Z,3.30
2019-03-09T06:59:14.737Z,3.30
2019-03-09T07:01:43.148Z,3.30
2019-03-09T07:04:13.197Z,3.30
2019-03-09T07:06:43.262Z,3.40
2019-03-09T07:09:12.938Z,3.40
2019-03-09T07:11:44.513Z,3.40
2019-03-09T07:14:48.168Z,3.40
2019-03-09T07:17:16.569Z,3.40
2019-03-09T07:19:49.590Z,3.50
2019-03-09T07:22:23.865Z,3.50
2019-03-09T07:24:58.001Z,3.60
2019-03-09T07:27:28.040Z,3.60
2019-03-09T07:29:56.465Z,3.60
2019-03-09T07:32:30.499Z,3.70
2019-03-09T07:35:01.624Z,3.70
2019-03-09T07:37:30.030Z,3.80
2019-03-09T07:40:04.264Z,3.80
2019-03-09T07:42:38.760Z,3.80
2019-03-09T07:45:17.758Z,3.90
2019-03-09T07:47:47.802Z,3.90
2019-03-09T07:50:25.396Z,3.90
2019-03-09T07:52:55.457Z,3.90
2019-03-09T07:55:24.198Z,3.90
2019-03-09T07:57:57.381Z,4.00
2019-03-09T08:00:26.057Z,4.00
2019-03-09T08:02:57.222Z,4.00
2019-03-09T08:05:37.612Z,4.10
2019-03-09T08:08:18.426Z,4.10
2019-03-09T08:10:56.042Z,4.10
2019-03-09T08:13:24.453Z,4.20
2019-03-09T08:15:52.869Z,4.30
2019-03-09T08:18:21.304Z,4.40
2019-03-09T08:20:49.716Z,4.60
2019-03-09T08:23:21.177Z,4.60
2019-03-09T08:25:52.540Z,4.60
2019-03-09T08:28:23.931Z,4.60
2019-03-09T08:30:57.081Z,4.60
2019-03-09T08:33:34.407Z,4.60
2019-03-09T08:36:10.153Z,4.70
2019-03-09T08:38:41.357Z,4.80
2019-03-09T08:41:09.771Z,4.90
2019-03-09T08:43:42.972Z,5.00
2019-03-09T08:46:13.108Z,5.10
2019-03-09T08:48:43.558Z,5.10
2019-03-09T08:51:14.706Z,5.10
2019-03-09T08:53:48.931Z,5.10
2019-03-09T08:56:20.685Z,5.10
2019-03-09T08:58:58.070Z,5.00
2019-03-09T09:01:30.906Z,5.10
2019-03-09T09:03:59.873Z,5.20
2019-03-09T09:06:36.818Z,5.20
2019-03-09T09:09:08.395Z,5.30
2019-03-09T09:11:42.720Z,5.30
2019-03-09T09:14:11.137Z,5.30
2019-03-09T09:16:39.561Z,5.30
2019-03-09T09:19:07.976Z,5.40
2019-03-09T09:21:39.150Z,5.40
2019-03-09T09:24:07.588Z,5.50
2019-03-09T09:26:35.976Z,5.50
2019-03-09T09:29:10.149Z,5.50
2019-03-09T09:31:41.253Z,5.50
2019-03-09T09:34:18.238Z,5.50
2019-03-09T09:36:51.720Z,5.50
2019-03-09T09:39:23.174Z,5.60
2019-03-09T09:41:51.577Z,5.70
2019-03-09T09:44:25.971Z,5.80
2019-03-09T09:46:57.533Z,5.80
2019-03-09T09:49:27.587Z,5.80
2019-03-09T09:51:56.005Z,5.90
2019-03-09T09:54:29.168Z,6.00
2019-03-09T09:56:58.625Z,6.10
2019-03-09T09:59:27.014Z,6.20
2019-03-09T10:01:58.493Z,6.40
2019-03-09T10:04:26.913Z,6.60
2019-03-09T10:06:57.243Z,6.80
2019-03-09T10:09:27.304Z,6.90
2019-03-09T10:11:55.700Z,6.90
2019-03-09T10:14:24.113Z,6.90
2019-03-09T10:16:52.532Z,6.90
2019-03-09T10:19:20.948Z,6.80
2019-03-09T10:21:49.361Z,6.80
2019-03-09T10:24:17.776Z,6.80
2019-03-09T10:26:46.437Z,6.90
2019-03-09T10:29:14.849Z,6.90
2019-03-09T10:31:45.941Z,7.00
2019-03-09T10:34:14.362Z,7.10
2019-03-09T10:36:42.788Z,7.10
2019-03-09T10:39:14.385Z,7.10
2019-03-09T10:41:48.835Z,7.00
2019-03-09T10:44:20.190Z,7.00
2019-03-09T10:46:51.877Z,7.00
2019-03-09T10:49:20.294Z,7.10
2019-03-09T10:51:51.369Z,7.30
2019-03-09T10:54:19.779Z,7.60
2019-03-09T10:56:52.902Z,7.90
2019-03-09T10:59:24.060Z,8.00
2019-03-09T11:01:55.751Z,8.00
2019-03-09T11:04:38.521Z,8.00
2019-03-09T11:07:15.945Z,7.90
2019-03-09T11:09:46.942Z,7.80
2019-03-09T11:12:17.008Z,7.70
2019-03-09T11:14:50.905Z,7.50
2019-03-09T11:17:24.701Z,7.30
2019-03-09T11:19:54.159Z,7.20
2019-03-09T11:22:25.549Z,7.00
2019-03-09T11:25:03.122Z,6.90
2019-03-09T11:27:30.573Z,6.80
2019-03-09T11:30:05.232Z,6.70
2019-03-09T11:32:38.281Z,6.60
2019-03-09T11:35:07.945Z,6.50
2019-03-09T11:37:44.808Z,6.50
2019-03-09T11:40:18.165Z,6.50
2019-03-09T11:42:51.017Z,6.50
2019-03-09T11:45:28.269Z,6.50
2019-03-09T11:47:56.684Z,6.50
2019-03-09T11:50:26.933Z,6.50
2019-03-09T11:52:55.397Z,6.50
2019-03-09T11:55:23.800Z,6.50
2019-03-09T11:57:59.913Z,6.50
2019-03-09T12:00:35.921Z,6.50
2019-03-09T12:03:11.027Z,6.50
2019-03-09T12:05:42.126Z,6.50
2019-03-09T12:08:14.549Z,6.50
2019-03-09T12:10:42.956Z,6.50
2019-03-09T12:13:14.328Z,6.50
2019-03-09T12:15:59.145Z,6.50
2019-03-09T12:18:33.517Z,6.50
2019-03-09T12:21:03.593Z,6.40
2019-03-09T12:23:32.032Z,6.40
2019-03-09T12:26:00.500Z,6.40
2019-03-09T12:28:37.049Z,6.40
2019-03-09T12:31:09.732Z,6.30
2019-03-09T12:33:42.502Z,6.30
2019-03-09T12:36:13.433Z,6.30
2019-03-09T12:38:43.493Z,6.30
2019-03-09T12:41:14.424Z,6.30
2019-03-09T12:43:45.848Z,6.40
2019-03-09T12:46:17.199Z,6.50
2019-03-09T12:48:48.277Z,6.40
2019-03-09T12:51:16.689Z,6.40
2019-03-09T12:53:45.110Z,6.40
2019-03-09T12:56:16.321Z,6.50
2019-03-09T12:58:47.137Z,6.60
2019-03-09T13:01:17.184Z,6.60
2019-03-09T13:03:45.592Z,6.60
2019-03-09T13:06:15.729Z,6.60
2019-03-09T13:08:44.411Z,6.60
2019-03-09T13:11:17.425Z,6.50
2019-03-09T13:13:45.829Z,6.50
2019-03-09T13:16:14.261Z,6.50
2019-03-09T13:18:51.641Z,6.40
2019-03-09T13:21:23.051Z,6.40
2019-03-09T13:23:54.529Z,6.30
2019-03-09T13:26:25.602Z,6.30
2019-03-09T13:28:55.663Z,6.20
2019-03-09T13:31:27.238Z,6.10
2019-03-09T13:34:01.818Z,6.10
2019-03-09T13:36:31.881Z,6.00
2019-03-09T13:39:00.293Z,6.00
2019-03-09T13:41:28.885Z,6.00
2019-03-09T13:43:57.293Z,6.10
2019-03-09T13:46:25.708Z,6.10
2019-03-09T13:48:57.118Z,6.10
2019-03-09T13:51:33.214Z,6.20
2019-03-09T13:54:04.509Z,6.20
2019-03-09T13:56:37.517Z,6.30
2019-03-09T13:59:08.382Z,6.30
2019-03-09T14:01:37.372Z,6.40
2019-03-09T14:04:11.198Z,6.40
2019-03-09T14:06:39.621Z,6.40
2019-03-09T14:09:10.972Z,6.50
2019-03-09T14:11:48.846Z,6.50
2019-03-09T14:14:17.255Z,6.50
2019-03-09T14:16:45.680Z,6.50
2019-03-09T14:19:15.729Z,6.50
2019-03-09T14:21:44.434Z,6.60
2019-03-09T14:24:14.186Z,6.60
2019-03-09T14:26:43.223Z,6.60
2019-03-09T14:29:11.633Z,6.70
2019-03-09T14:31:40.060Z,6.80
2019-03-09T14:34:11.053Z,6.80
2019-03-09T14:36:39.568Z,6.80
2019-03-09T14:39:13.726Z,6.80
2019-03-09T14:41:42.143Z,6.80
2019-03-09T14:44:14.056Z,6.80
2019-03-09T14:46:45.428Z,6.80
2019-03-09T14:49:17.018Z,6.70
2019-03-09T14:51:45.994Z,6.60
2019-03-09T14:54:20.045Z,6.60
2019-03-09T14:56:48.463Z,6.50
2019-03-09T14:59:21.177Z,6.50
2019-03-09T15:01:49.601Z,6.50
2019-03-09T15:04:21.881Z,6.50
2019-03-09T15:06:50.281Z,6.40
2019-03-09T15:09:20.334Z,6.50
2019-03-09T15:11:50.280Z,6.50
2019-03-09T15:14:18.685Z,6.50
2019-03-09T15:16:47.123Z,6.40
2019-03-09T15:19:20.897Z,6.40
2019-03-09T15:21:52.129Z,6.40
2019-03-09T15:24:26.505Z,6.40
2019-03-09T15:26:56.907Z,6.40
2019-03-09T15:29:26.964Z,6.40
2019-03-09T15:31:58.309Z,6.40
2019-03-09T15:34:26.724Z,6.40
2019-03-09T15:36:58.213Z,6.50
2019-03-09T15:39:28.345Z,6.50
2019-03-09T15:41:56.749Z,6.50
2019-03-09T15:44:25.577Z,6.50
2019-03-09T15:46:59.429Z,6.40
2019-03-09T15:49:29.842Z,6.40
2019-03-09T15:51:59.954Z,6.40
2019-03-09T15:54:28.365Z,6.40
2019-03-09T15:56:59.684Z,6.40
2019-03-09T15:59:30.083Z,6.40
2019-03-09T16:02:04.309Z,6.40
2019-03-09T16:04:35.469Z,6.40
2019-03-09T16:07:10.117Z,6.30
2019-03-09T16:09:38.628Z,6.40
2019-03-09T16:12:08.681Z,6.30
2019-03-09T16:14:40.210Z,6.30
2019-03-09T16:17:11.512Z,6.30
2019-03-09T16:19:41.641Z,6.30
2019-03-09T16:22:10.083Z,6.30
2019-03-09T16:24:38.525Z,6.30
2019-03-09T16:27:09.612Z,6.30
2019-03-09T16:29:38.033Z,6.30
2019-03-09T16:32:08.128Z,6.30
2019-03-09T16:34:36.841Z,6.30
2019-03-09T16:37:05.249Z,6.20
2019-03-09T16:39:39.537Z,6.20
2019-03-09T16:42:13.782Z,6.10
2019-03-09T16:44:43.840Z,6.10
2019-03-09T16:47:15.449Z,6.10
2019-03-09T16:49:46.553Z,6.10
2019-03-09T16:52:14.956Z,6.10
2019-03-09T16:54:43.734Z,6.00
2019-03-09T16:57:15.249Z,6.00
2019-03-09T16:59:45.306Z,6.00
2019-03-09T17:02:15.357Z,6.00
2019-03-09T17:04:45.725Z,6.00
2019-03-09T17:07:15.781Z,6.00
2019-03-09T17:09:47.247Z,6.00
2019-03-09T17:12:17.298Z,6.10
2019-03-09T17:14:48.665Z,6.10
2019-03-09T17:17:19.077Z,6.10
2019-03-09T17:19:53.005Z,6.10
2019-03-09T17:22:21.409Z,6.10
2019-03-09T17:24:51.389Z,6.10
2019-03-09T17:27:19.850Z,6.10
2019-03-09T17:29:52.465Z,6.10
2019-03-09T17:32:25.759Z,6.10
2019-03-09T17:34:51.881Z,6.10
2019-03-09T17:37:20.317Z,6.10
2019-03-09T17:39:51.873Z,6.10
2019-03-09T17:42:23.998Z,6.10
2019-03-09T17:44:53.086Z,6.10
2019-03-09T17:47:21.925Z,6.20
2019-03-09T17:49:56.089Z,6.20
2019-03-09T17:52:24.512Z,6.20
2019-03-09T17:54:52.921Z,6.30
2019-03-09T17:57:21.604Z,6.30
2019-03-09T17:59:50.557Z,6.40
2019-03-09T18:02:24.420Z,6.40
2019-03-09T18:04:54.465Z,6.40
2019-03-09T18:07:25.773Z,6.40
2019-03-09T18:09:54.189Z,6.40
2019-03-09T18:12:26.729Z,6.50
2019-03-09T18:15:00.946Z,6.50
2019-03-09T18:17:26.917Z,6.50
2019-03-09T18:20:01.157Z,6.50
2019-03-09T18:22:30.545Z,6.50
2019-03-09T18:25:01.667Z,6.50
2019-03-09T18:27:34.364Z,6.50
2019-03-09T18:30:08.989Z,6.60
2019-03-09T18:32:37.755Z,6.60
2019-03-09T18:35:22.850Z,6.60
2019-03-09T18:37:51.269Z,6.60
2019-03-09T18:40:19.683Z,6.60
2019-03-09T18:42:49.801Z,6.60
2019-03-09T18:45:24.980Z,6.60
2019-03-09T18:47:53.727Z,6.60
2019-03-09T18:50:26.873Z,6.70
2019-03-09T18:52:55.293Z,6.70
2019-03-09T18:55:26.743Z,6.70
2019-03-09T18:57:55.177Z,6.70
2019-03-09T19:00:26.660Z,6.70
2019-03-09T19:02:59.419Z,6.70
2019-03-09T19:05:36.453Z,6.70
2019-03-09T19:08:05.162Z,6.70
2019-03-09T19:10:33.574Z,6.70
2019-03-09T19:13:04.065Z,6.70
2019-03-09T19:15:32.468Z,6.70
2019-03-09T19:18:03.861Z,6.70
2019-03-09T19:20:34.788Z,6.70
2019-03-09T19:23:05.973Z,6.70
2019-03-09T19:25:37.300Z,6.80
2019-03-09T19:28:11.774Z,6.80
2019-03-09T19:30:44.738Z,6.80
2019-03-09T19:33:18.882Z,6.80
2019-03-09T19:35:47.301Z,6.80
2019-03-09T19:38:15.714Z,6.80
2019-03-09T19:40:46.839Z,6.80
2019-03-09T19:43:16.901Z,6.80
2019-03-09T19:45:51.000Z,6.80
2019-03-09T19:48:22.073Z,6.60
2019-03-09T19:50:56.233Z,6.50
2019-03-09T19:53:24.925Z,6.40
2019-03-09T19:55:53.346Z,6.30
2019-03-09T19:58:21.765Z,6.20
2019-03-09T20:00:52.601Z,6.10
2019-03-09T20:03:25.331Z,6.10
2019-03-09T20:05:55.086Z,6.00
2019-03-09T20:08:30.859Z,6.00
2019-03-09T20:10:59.541Z,6.00
2019-03-09T20:13:27.949Z,6.00
2019-03-09T20:15:56.608Z,5.90
2019-03-09T20:18:36.764Z,5.80
2019-03-09T20:21:08.301Z,5.70
2019-03-09T20:23:36.710Z,5.50
2019-03-09T20:26:06.819Z,5.40
2019-03-09T20:28:39.831Z,5.40
2019-03-09T20:31:08.365Z,5.30
2019-03-09T20:33:43.568Z,5.20
2019-03-09T20:36:14.936Z,5.20
2019-03-09T20:38:46.585Z,5.20
2019-03-09T20:41:18.039Z,5.20
2019-03-09T20:43:49.383Z,5.10
2019-03-09T20:46:17.801Z,5.10
2019-03-09T20:48:49.622Z,5.10
2019-03-09T20:51:18.046Z,5.10
2019-03-09T20:53:46.466Z,5.00
2019-03-09T20:56:20.242Z,5.00
2019-03-09T20:58:50.294Z,5.00
2019-03-09T21:01:21.657Z,5.00
2019-03-09T21:03:56.828Z,4.90
2019-03-09T21:06:27.998Z,4.90
2019-03-09T21:08:58.356Z,4.90
2019-03-09T21:11:29.037Z,4.80
2019-03-09T21:13:57.282Z,4.80
2019-03-09T21:16:29.161Z,4.80
2019-03-09T21:19:03.900Z,4.80
2019-03-09T21:21:35.704Z,4.80
2019-03-09T21:24:12.608Z,4.80
2019-03-09T21:26:44.485Z,4.70
2019-03-09T21:29:21.797Z,4.70
2019-03-09T21:31:56.049Z,4.70
2019-03-09T21:34:24.457Z,4.70
2019-03-09T21:36:55.788Z,4.60
2019-03-09T21:39:29.973Z,4.60
2019-03-09T21:41:58.391Z,4.60
2019-03-09T21:44:38.789Z,4.60
2019-03-09T21:47:08.853Z,4.60
2019-03-09T21:49:37.585Z,4.60
2019-03-09T21:52:08.733Z,4.60
2019-03-09T21:54:39.857Z,4.70
2019-03-09T21:57:12.794Z,4.70
2019-03-09T21:59:44.413Z,4.70
2019-03-09T22:02:18.753Z,4.70
2019-03-09T22:04:50.007Z,4.70
2019-03-09T22:07:29.850Z,4.70
2019-03-09T22:10:01.439Z,4.70
2019-03-09T22:12:29.857Z,4.70
2019-03-09T22:14:58.275Z,4.70
2019-03-09T22:17:35.579Z,4.70
2019-03-09T22:20:06.677Z,4.70
2019-03-09T22:22:35.105Z,4.70
2019-03-09T22:25:10.616Z,4.70
2019-03-09T22:27:41.643Z,4.70
2019-03-09T22:30:15.972Z,4.70
2019-03-09T22:32:44.445Z,4.80
2019-03-09T22:35:14.993Z,4.80
2019-03-09T22:37:46.366Z,4.80
2019-03-09T22:40:21.018Z,4.80
2019-03-09T22:42:58.657Z,4.80
2019-03-09T22:45:31.625Z,4.80
2019-03-09T22:48:02.397Z,4.90
2019-03-09T22:50:32.445Z,4.90
2019-03-09T22:53:03.651Z,4.90
2019-03-09T22:55:33.817Z,4.90
2019-03-09T22:58:02.262Z,5.00
2019-03-09T23:00:31.397Z,5.00
2019-03-09T23:03:05.902Z,5.00
2019-03-09T23:05:35.686Z,5.00
2019-03-09T23:08:08.683Z,5.00
2019-03-09T23:10:37.101Z,5.00
2019-03-09T23:13:08.308Z,5.00
2019-03-09T23:15:37.054Z,5.00
2019-03-09T23:18:08.005Z,5.00
2019-03-09T23:20:46.497Z,4.90
2019-03-09T23:23:16.579Z,4.90
2019-03-09T23:25:44.988Z,4.90
2019-03-09T23:28:16.610Z,4.80
2019-03-09T23:30:47.714Z,4.80
2019-03-09T23:33:23.186Z,4.80
2019-03-09T23:35:57.194Z,4.70
2019-03-09T23:38:28.384Z,4.70
2019-03-09T23:40:58.861Z,4.70
2019-03-09T23:43:27.260Z,4.60
2019-03-09T23:45:55.685Z,4.60
2019-03-09T23:48:26.753Z,4.50
2019-03-09T23:50:58.961Z,4.50
2019-03-09T23:53:30.097Z,4.40
2019-03-09T23:56:01.447Z,4.40
2019-03-09T23:58:37.159Z,4.40
